Time;durP1;ratioP1;P1;durP2;ratioP2;P2;SDS_P1;SDS_P2;PMS_P1;PMS_P2;Temp;Humidity;BMP_temperature;BMP_pressure;BME280_temperature;BME280_humidity;BME280_pressure;Samples;Min_cycle;Max_cycle;Signal;HPM_P1;HPM_P2
2022/03/07 00:02:04;;;;;;;9.77;5.60;;;1.90;72.60;;;;;;5053433;28;20170;-63
2022/03/07 00:04:30;;;;;;;7.78;5.50;;;1.90;73.40;;;;;;5053285;28;20229;-63
2022/03/07 00:06:55;;;;;;;8.70;5.68;;;2.00;72.70;;;;;;5054169;28;20687;-63
2022/03/07 00:09:21;;;;;;;8.07;5.80;;;1.90;72.60;;;;;;5053254;28;20640;-63
2022/03/07 00:11:47;;;;;;;7.03;5.35;;;1.90;72.60;;;;;;5049191;28;20213;-63
2022/03/07 00:14:12;;;;;;;8.10;5.35;;;1.90;72.80;;;;;;5043388;28;20181;-63
2022/03/07 00:16:38;;;;;;;7.53;5.38;;;1.80;72.80;;;;;;5053398;28;20186;-62
2022/03/07 00:19:04;;;;;;;8.05;5.32;;;1.80;73.00;;;;;;5053620;28;20208;-62
2022/03/07 00:21:30;;;;;;;6.88;5.00;;;1.80;73.10;;;;;;5053138;28;20193;-63
2022/03/07 00:23:56;;;;;;;8.65;5.35;;;1.80;73.10;;;;;;5053349;28;20188;-63
2022/03/07 00:26:21;;;;;;;7.55;5.25;;;1.70;72.70;;;;;;5052987;28;20178;-63
2022/03/07 00:28:47;;;;;;;7.65;4.70;;;1.70;73.00;;;;;;5052871;28;20428;-63
2022/03/07 00:31:14;;;;;;;7.40;4.70;;;1.70;72.70;;;;;;5053480;28;20190;-63
2022/03/07 00:33:41;;;;;;;8.23;5.32;;;1.70;72.50;;;;;;5053045;28;20227;-62
2022/03/07 00:36:07;;;;;;;6.28;5.05;;;1.70;71.90;;;;;;5052195;28;20192;-63
2022/03/07 00:38:33;;;;;;;6.18;4.75;;;1.60;72.10;;;;;;5053041;28;20227;-63
2022/03/07 00:40:59;;;;;;;7.63;4.78;;;1.60;72.20;;;;;;5052789;28;20271;-63
2022/03/07 00:43:25;;;;;;;6.88;4.93;;;1.60;72.00;;;;;;5053081;28;20173;-63
2022/03/07 00:45:51;;;;;;;9.52;5.15;;;1.60;71.90;;;;;;5052889;28;20189;-63
2022/03/07 00:48:18;;;;;;;8.15;5.43;;;1.50;70.90;;;;;;5053345;28;20234;-63
2022/03/07 00:50:45;;;;;;;7.47;5.15;;;1.50;69.90;;;;;;5053150;28;20200;-62
2022/03/07 00:53:16;;;;;;;6.93;4.60;;;1.50;70.00;;;;;;5053101;28;20200;-63
2022/03/07 00:55:42;;;;;;;8.85;5.85;;;1.40;69.90;;;;;;5052122;28;20593;-63
2022/03/07 00:58:08;;;;;;;6.57;4.35;;;1.40;70.20;;;;;;5052856;28;20177;-63
2022/03/07 01:00:34;;;;;;;5.95;4.65;;;1.40;70.40;;;;;;5052428;28;20574;-63
2022/03/07 01:03:00;;;;;;;7.20;5.20;;;1.40;70.30;;;;;;5052121;28;20900;-63
2022/03/07 01:05:25;;;;;;;6.70;5.05;;;1.30;70.30;;;;;;5052585;28;20271;-63
2022/03/07 01:07:51;;;;;;;7.28;4.97;;;1.30;70.30;;;;;;5052530;28;20273;-63
2022/03/07 01:10:17;;;;;;;6.55;4.68;;;1.30;70.40;;;;;;5052707;28;20173;-63
2022/03/07 01:12:43;;;;;;;6.45;4.78;;;1.30;70.50;;;;;;5052275;28;20177;-63
2022/03/07 01:15:09;;;;;;;6.75;4.50;;;1.20;70.20;;;;;;5052227;28;20177;-62
2022/03/07 01:17:36;;;;;;;7.03;5.10;;;1.20;70.10;;;;;;5052175;28;20178;-63
2022/03/07 01:20:03;;;;;;;6.82;4.55;;;1.10;70.30;;;;;;5052414;28;20676;-63
2022/03/07 01:22:29;;;;;;;7.45;4.90;;;1.10;70.40;;;;;;5051988;28;20173;-63
2022/03/07 01:24:54;;;;;;;6.40;4.47;;;1.10;70.60;;;;;;5052307;28;20269;-63
2022/03/07 01:27:20;;;;;;;7.50;5.00;;;1.00;70.70;;;;;;5051882;28;20264;-63
2022/03/07 01:29:46;;;;;;;5.70;4.40;;;1.00;70.60;;;;;;5052254;28;20208;-63
2022/03/07 01:32:11;;;;;;;8.38;5.07;;;0.90;70.30;;;;;;5052278;28;20230;-63
2022/03/07 01:34:37;;;;;;;5.53;4.68;;;0.90;70.50;;;;;;5051864;28;20185;-64
2022/03/07 01:37:02;;;;;;;6.60;4.82;;;0.80;70.50;;;;;;5051729;28;20308;-62
2022/03/07 01:39:28;;;;;;;6.55;5.10;;;0.80;70.50;;;;;;5050790;28;20261;-63
2022/03/07 01:41:54;;;;;;;6.80;4.50;;;0.80;70.80;;;;;;5052204;28;20192;-63
2022/03/07 01:44:21;;;;;;;7.65;5.05;;;0.70;70.70;;;;;;5052027;28;20173;-62
2022/03/07 01:46:47;;;;;;;7.90;5.00;;;0.70;70.30;;;;;;5051306;28;20254;-62
2022/03/07 01:49:13;;;;;;;8.80;4.70;;;0.70;70.40;;;;;;5057110;28;20185;-62
2022/03/07 01:51:42;;;;;;;7.18;4.90;;;0.60;70.20;;;;;;5057805;28;20196;-65
2022/03/07 01:54:09;;;;;;;6.13;4.68;;;0.60;69.90;;;;;;5051536;28;20265;-63
2022/03/07 01:56:35;;;;;;;6.75;4.85;;;0.60;69.70;;;;;;5051544;28;20201;-63
2022/03/07 01:59:05;;;;;;;7.18;5.60;;;0.50;69.80;;;;;;5051427;28;20692;-63
2022/03/07 02:01:31;;;;;;;7.88;5.20;;;0.50;69.80;;;;;;5051634;28;20543;-63
2022/03/07 02:03:57;;;;;;;6.05;4.47;;;0.50;69.80;;;;;;5051075;28;20294;-63
2022/03/07 02:06:23;;;;;;;7.13;4.90;;;0.40;69.90;;;;;;5051291;28;20601;-63
2022/03/07 02:08:51;;;;;;;8.82;5.88;;;0.50;70.00;;;;;;5050577;28;20197;-63
2022/03/07 02:11:17;;;;;;;9.32;5.30;;;0.50;70.10;;;;;;5051349;28;20193;-63
2022/03/07 02:13:43;;;;;;;8.40;5.40;;;0.40;70.10;;;;;;5051373;28;20637;-62
2022/03/07 02:16:09;;;;;;;8.82;5.72;;;0.40;70.10;;;;;;5036898;28;20181;-62
2022/03/07 02:18:34;;;;;;;6.47;5.15;;;0.40;70.10;;;;;;5051463;28;20265;-63
2022/03/07 02:21:16;;;;;;;7.60;5.28;;;0.40;70.50;;;;;;5051528;28;20743;-62
2022/03/07 02:23:43;;;;;;;9.05;5.80;;;0.40;70.80;;;;;;5047120;28;20185;-63
2022/03/07 02:26:17;;;;;;;9.00;5.70;;;0.30;70.90;;;;;;5051206;28;20531;-62
2022/03/07 02:28:44;;;;;;;8.90;5.88;;;0.30;71.10;;;;;;5050900;28;20258;-63
2022/03/07 02:31:15;;;;;;;8.02;5.72;;;0.40;71.40;;;;;;5051273;28;20209;-63
2022/03/07 02:33:40;;;;;;;9.32;5.70;;;0.30;71.40;;;;;;5051365;28;20189;-63
2022/03/07 02:36:06;;;;;;;8.90;5.73;;;0.30;71.70;;;;;;5051550;28;20169;-62
2022/03/07 02:38:31;;;;;;;8.52;5.53;;;0.20;71.80;;;;;;5050986;28;20648;-63
2022/03/07 02:40:57;;;;;;;7.78;5.50;;;0.20;72.00;;;;;;5051440;28;20264;-64
2022/03/07 02:43:22;;;;;;;9.18;5.97;;;0.20;72.30;;;;;;5051278;28;20170;-63
2022/03/07 02:45:48;;;;;;;8.57;5.65;;;0.10;72.60;;;;;;5051060;28;20181;-63
2022/03/07 02:48:14;;;;;;;9.50;6.13;;;0.10;73.00;;;;;;5051383;28;20235;-62
2022/03/07 02:50:39;;;;;;;8.85;5.97;;;0.10;73.40;;;;;;5051553;28;20542;-63
2022/03/07 02:53:06;;;;;;;8.68;5.50;;;0.00;73.90;;;;;;5054153;28;20178;-63
2022/03/07 02:55:32;;;;;;;11.63;5.95;;;0.00;74.30;;;;;;5055132;28;20181;-63
2022/03/07 02:57:59;;;;;;;10.10;5.78;;;0.00;75.40;;;;;;5055178;28;20173;-62
2022/03/07 03:00:25;;;;;;;9.05;5.45;;;-0.10;76.50;;;;;;5055097;28;20217;-63
2022/03/07 03:02:51;;;;;;;9.18;5.63;;;-0.10;77.70;;;;;;5054709;28;20538;-63
2022/03/07 03:05:17;;;;;;;8.93;5.80;;;-0.20;78.80;;;;;;5053063;28;20200;-62
2022/03/07 03:07:42;;;;;;;8.48;5.45;;;-0.30;80.00;;;;;;5054797;28;20549;-63
2022/03/07 03:10:08;;;;;;;9.75;5.32;;;-0.40;81.30;;;;;;5054952;28;20193;-62
2022/03/07 03:12:34;;;;;;;7.37;4.63;;;-0.40;82.20;;;;;;5053463;28;20243;-63
2022/03/07 03:15:00;;;;;;;8.32;4.72;;;-0.50;82.80;;;;;;5054867;28;20181;-63
2022/03/07 03:17:26;;;;;;;6.82;4.40;;;-0.50;83.80;;;;;;5054576;28;20252;-64
2022/03/07 03:19:53;;;;;;;8.98;4.47;;;-0.50;84.70;;;;;;5054024;28;20209;-63
2022/03/07 03:22:19;;;;;;;6.32;4.38;;;-0.50;85.40;;;;;;5054221;28;20224;-63
2022/03/07 03:24:45;;;;;;;6.93;4.53;;;-0.60;86.30;;;;;;5054521;28;20196;-63
2022/03/07 03:27:11;;;;;;;7.00;4.72;;;-0.60;87.00;;;;;;5054196;28;20187;-63
2022/03/07 03:29:37;;;;;;;8.88;3.95;;;-0.60;88.00;;;;;;5054633;28;20427;-63
2022/03/07 03:32:02;;;;;;;6.18;4.20;;;-0.60;88.50;;;;;;5054518;28;20272;-63
2022/03/07 03:34:28;;;;;;;6.40;3.97;;;-0.60;89.20;;;;;;5054241;28;20656;-63
2022/03/07 03:36:53;;;;;;;6.80;4.07;;;-0.60;89.70;;;;;;5054192;28;20276;-63
2022/03/07 03:39:19;;;;;;;6.90;3.70;;;-0.60;90.00;;;;;;5053912;28;20280;-63
2022/03/07 03:41:45;;;;;;;6.13;4.20;;;-0.60;90.30;;;;;;5054121;28;20598;-63
2022/03/07 03:44:10;;;;;;;6.40;4.10;;;-0.60;90.40;;;;;;5054322;28;20192;-63
2022/03/07 03:46:37;;;;;;;5.27;3.77;;;-0.70;90.60;;;;;;5054253;28;20189;-63
2022/03/07 03:49:03;;;;;;;5.90;3.83;;;-0.70;90.80;;;;;;5057725;28;20263;-62
2022/03/07 03:51:29;;;;;;;6.18;3.78;;;-0.70;90.80;;;;;;5054209;28;20194;-63
2022/03/07 03:53:54;;;;;;;5.40;3.80;;;-0.80;91.00;;;;;;5054262;28;20188;-63
2022/03/07 03:56:20;;;;;;;5.53;3.73;;;-0.80;91.30;;;;;;5055641;28;20267;-63
2022/03/07 03:58:46;;;;;;;5.20;3.85;;;-0.80;91.50;;;;;;5052323;28;20641;-63
2022/03/07 04:01:11;;;;;;;7.57;3.70;;;-0.90;91.60;;;;;;5049561;28;20509;-63
2022/03/07 04:03:37;;;;;;;5.03;3.40;;;-0.90;92.00;;;;;;5050623;28;20256;-63
2022/03/07 04:06:04;;;;;;;6.97;3.47;;;-0.90;92.00;;;;;;5042928;28;20185;-62
2022/03/07 04:08:30;;;;;;;6.72;3.40;;;-1.00;92.10;;;;;;5040461;28;20201;-63
2022/03/07 04:10:56;;;;;;;4.90;3.50;;;-0.90;92.30;;;;;;5047326;28;20529;-62
2022/03/07 04:13:21;;;;;;;5.57;3.25;;;-1.00;92.40;;;;;;5053204;28;20170;-62
2022/03/07 04:15:48;;;;;;;5.20;3.43;;;-1.00;92.50;;;;;;5044117;28;20235;-63
2022/03/07 04:18:14;;;;;;;6.07;3.72;;;-1.10;92.60;;;;;;5052491;28;20315;-63
2022/03/07 04:20:39;;;;;;;6.35;3.65;;;-1.10;92.80;;;;;;5051787;28;20598;-62
2022/03/07 04:23:05;;;;;;;5.28;3.30;;;-1.10;92.90;;;;;;5051972;28;20181;-63
2022/03/07 04:25:33;;;;;;;4.60;3.58;;;-1.20;93.00;;;;;;5052076;28;20690;-63
2022/03/07 04:28:00;;;;;;;5.50;3.90;;;-1.20;93.00;;;;;;5052579;28;21079;-63
2022/03/07 04:30:25;;;;;;;4.78;3.60;;;-1.20;93.10;;;;;;5047437;28;20236;-63
2022/03/07 04:32:51;;;;;;;5.93;3.87;;;-1.20;93.20;;;;;;5038471;28;20260;-62
2022/03/07 04:35:17;;;;;;;6.73;3.50;;;-1.20;93.30;;;;;;5051586;28;20181;-62
2022/03/07 04:37:42;;;;;;;5.70;3.90;;;-1.20;93.30;;;;;;5051642;28;20181;-62
2022/03/07 04:40:14;;;;;;;4.60;3.27;;;-1.20;93.30;;;;;;5052557;28;20206;-62
2022/03/07 04:42:41;;;;;;;6.97;4.37;;;-1.20;93.30;;;;;;5045598;28;20560;-61
2022/03/07 04:45:07;;;;;;;7.70;3.88;;;-1.20;93.40;;;;;;5052309;28;20176;-61
2022/03/07 04:47:33;;;;;;;7.60;4.00;;;-1.30;93.40;;;;;;5052777;28;20200;-61
2022/03/07 04:49:59;;;;;;;6.27;4.20;;;-1.30;93.40;;;;;;5061244;28;20772;-60
2022/03/07 04:52:24;;;;;;;8.27;3.93;;;-1.30;93.30;;;;;;5052156;28;20174;-61
2022/03/07 04:54:50;;;;;;;5.68;3.60;;;-1.30;93.40;;;;;;5052244;28;20529;-60
2022/03/07 04:57:15;;;;;;;4.47;3.60;;;-1.30;93.40;;;;;;5051961;28;20180;-62
2022/03/07 04:59:43;;;;;;;5.13;3.70;;;-1.30;93.40;;;;;;5052204;28;20656;-60
2022/03/07 05:02:08;;;;;;;5.17;3.70;;;-1.30;93.30;;;;;;5053215;28;20224;-60
2022/03/07 05:04:34;;;;;;;5.87;3.80;;;-1.30;93.40;;;;;;5052309;28;20221;-61
2022/03/07 05:06:59;;;;;;;5.53;3.67;;;-1.30;93.40;;;;;;5052688;28;20194;-61
2022/03/07 05:09:25;;;;;;;6.47;3.63;;;-1.30;93.50;;;;;;5050887;28;20181;-61
2022/03/07 05:11:50;;;;;;;7.27;4.10;;;-1.30;93.60;;;;;;5052755;28;20173;-60
2022/03/07 05:14:17;;;;;;;7.93;4.32;;;-1.30;93.60;;;;;;5052244;28;20648;-60
2022/03/07 05:16:43;;;;;;;14.93;5.60;;;-1.30;93.70;;;;;;5052615;28;20185;-59
2022/03/07 05:19:09;;;;;;;8.37;4.80;;;-1.30;93.60;;;;;;5052526;28;20266;-59
2022/03/07 05:21:35;;;;;;;6.07;3.60;;;-1.30;93.60;;;;;;5052097;28;20596;-59
2022/03/07 05:24:00;;;;;;;8.30;4.20;;;-1.30;93.70;;;;;;5052643;28;20177;-58
2022/03/07 05:26:26;;;;;;;5.63;3.90;;;-1.30;93.70;;;;;;5052755;28;20192;-59
2022/03/07 05:28:51;;;;;;;7.07;3.90;;;-1.30;93.80;;;;;;5052245;28;20227;-58
2022/03/07 05:31:17;;;;;;;5.60;3.60;;;-1.30;93.90;;;;;;5052112;28;20276;-60
2022/03/07 05:33:43;;;;;;;5.83;3.87;;;-1.30;93.90;;;;;;5051640;28;20177;-62
2022/03/07 05:36:08;;;;;;;6.22;3.65;;;-1.30;94.00;;;;;;5052049;28;20189;-62
2022/03/07 05:38:34;;;;;;;6.20;3.57;;;-1.30;93.90;;;;;;5051332;28;20189;-62
2022/03/07 05:40:59;;;;;;;6.00;3.77;;;-1.30;93.90;;;;;;5052217;28;20242;-62
2022/03/07 05:43:25;;;;;;;5.43;3.58;;;-1.30;94.00;;;;;;5050718;28;20625;-62
2022/03/07 05:45:51;;;;;;;7.72;4.45;;;-1.30;94.00;;;;;;5050803;28;20195;-62
2022/03/07 05:48:16;;;;;;;5.20;3.80;;;-1.30;93.90;;;;;;5051110;28;20190;-62
2022/03/07 05:50:42;;;;;;;7.82;4.10;;;-1.30;93.90;;;;;;5052325;28;20227;-62
2022/03/07 05:53:08;;;;;;;6.05;3.97;;;-1.30;94.00;;;;;;5051054;28;20205;-61
2022/03/07 05:55:33;;;;;;;5.57;3.90;;;-1.30;94.00;;;;;;5052183;28;20184;-63
2022/03/07 05:58:00;;;;;;;5.07;3.72;;;-1.30;94.00;;;;;;5052143;28;20679;-62
2022/03/07 06:00:28;;;;;;;7.22;4.47;;;-1.20;94.10;;;;;;5052012;28;20713;-63
2022/03/07 06:02:53;;;;;;;5.63;3.85;;;-1.30;94.10;;;;;;5052027;28;20234;-63
2022/03/07 06:05:20;;;;;;;6.88;4.20;;;-1.20;94.20;;;;;;5052147;28;20256;-62
2022/03/07 06:07:45;;;;;;;5.90;4.33;;;-1.20;94.20;;;;;;5052159;28;20622;-62
2022/03/07 06:10:11;;;;;;;10.30;4.28;;;-1.20;94.10;;;;;;5051986;28;20288;-63
2022/03/07 06:12:36;;;;;;;7.13;3.90;;;-1.20;94.10;;;;;;5051920;28;20185;-63
2022/03/07 06:15:04;;;;;;;6.37;4.17;;;-1.10;94.20;;;;;;5051989;28;20212;-63
2022/03/07 06:17:34;;;;;;;6.13;3.83;;;-1.20;94.00;;;;;;5051923;28;20170;-63
2022/03/07 06:19:59;;;;;;;8.03;4.47;;;-1.10;94.10;;;;;;5051974;28;20219;-62
2022/03/07 06:22:25;;;;;;;6.88;4.53;;;-1.10;94.00;;;;;;5051734;28;20189;-62
2022/03/07 06:24:51;;;;;;;6.93;4.43;;;-1.10;93.90;;;;;;5052185;28;20189;-62
2022/03/07 06:27:16;;;;;;;5.93;3.88;;;-1.10;93.90;;;;;;5058374;28;20234;-62
2022/03/07 06:29:42;;;;;;;7.83;4.37;;;-1.10;93.70;;;;;;5058459;28;20173;-63
2022/03/07 06:32:08;;;;;;;7.25;4.60;;;-1.10;93.70;;;;;;5058355;28;20952;-63
2022/03/07 06:34:33;;;;;;;7.77;4.70;;;-1.10;93.70;;;;;;5058361;28;20220;-62
2022/03/07 06:37:00;;;;;;;5.20;3.83;;;-1.00;93.70;;;;;;5058534;28;20209;-63
2022/03/07 06:39:27;;;;;;;7.25;4.13;;;-1.00;93.50;;;;;;5057008;28;20223;-63
2022/03/07 06:41:53;;;;;;;5.97;4.35;;;-1.00;93.40;;;;;;5057164;28;20177;-63
2022/03/07 06:44:19;;;;;;;8.07;4.83;;;-0.90;93.30;;;;;;5058542;28;20242;-62
2022/03/07 06:46:44;;;;;;;7.82;4.85;;;-0.90;93.20;;;;;;5058362;28;20181;-62
2022/03/07 06:49:10;;;;;;;9.93;4.97;;;-0.90;93.00;;;;;;5058833;28;20234;-62
2022/03/07 06:51:37;;;;;;;7.95;4.47;;;-0.90;92.90;;;;;;5058395;28;20166;-62
2022/03/07 06:54:03;;;;;;;10.85;4.97;;;-0.70;92.90;;;;;;5058424;28;20170;-62
2022/03/07 06:56:29;;;;;;;7.82;4.82;;;-0.60;92.80;;;;;;5058340;28;20174;-62
2022/03/07 06:58:54;;;;;;;9.63;4.72;;;-0.50;92.50;;;;;;5058311;28;20314;-62
2022/03/07 07:01:20;;;;;;;6.97;4.47;;;-0.30;92.30;;;;;;5058522;28;20184;-62
2022/03/07 07:03:45;;;;;;;6.25;4.50;;;-0.10;91.70;;;;;;5058072;28;20551;-63
2022/03/07 07:06:11;;;;;;;7.93;4.93;;;0.20;90.80;;;;;;5058043;28;20656;-62
2022/03/07 07:08:36;;;;;;;8.23;4.97;;;0.60;90.20;;;;;;5058394;28;20536;-62
2022/03/07 07:11:02;;;;;;;8.18;5.25;;;0.90;88.30;;;;;;5058289;28;20574;-63
2022/03/07 07:13:29;;;;;;;8.10;4.95;;;1.20;87.00;;;;;;5058230;28;20208;-63
2022/03/07 07:15:55;;;;;;;10.40;5.38;;;1.60;85.50;;;;;;5058382;28;20600;-63
2022/03/07 07:18:22;;;;;;;7.55;5.00;;;1.80;82.50;;;;;;5058360;28;20201;-62
2022/03/07 07:20:50;;;;;;;7.22;4.45;;;2.00;82.10;;;;;;5058133;28;20208;-62
2022/03/07 07:23:19;;;;;;;6.40;4.90;;;2.20;79.70;;;;;;5058249;28;20621;-63
2022/03/07 07:25:46;;;;;;;7.78;4.78;;;2.30;79.00;;;;;;5058163;28;20196;-63
2022/03/07 07:28:12;;;;;;;7.32;4.85;;;2.50;78.20;;;;;;5058293;28;20180;-63
2022/03/07 07:30:38;;;;;;;8.38;5.18;;;2.80;76.90;;;;;;5058086;28;20227;-63
2022/03/07 07:33:04;;;;;;;9.07;4.97;;;2.70;75.40;;;;;;5058131;28;20240;-63
2022/03/07 07:35:29;;;;;;;8.88;5.07;;;2.80;75.20;;;;;;5058064;28;20185;-63
2022/03/07 07:37:55;;;;;;;12.20;5.18;;;2.90;75.10;;;;;;5054600;28;20201;-63
2022/03/07 07:40:21;;;;;;;6.68;4.47;;;3.20;74.20;;;;;;5055091;28;20217;-63
2022/03/07 07:42:46;;;;;;;10.05;5.72;;;3.20;72.50;;;;;;5054925;28;20195;-63
2022/03/07 07:45:12;;;;;;;8.68;5.50;;;3.20;72.80;;;;;;5054811;28;20193;-62
2022/03/07 07:47:39;;;;;;;7.22;5.03;;;3.30;72.70;;;;;;5054840;28;20166;-63
2022/03/07 07:50:05;;;;;;;9.98;5.70;;;3.60;72.50;;;;;;5054644;28;20176;-63
2022/03/07 07:52:30;;;;;;;10.02;6.13;;;3.60;71.90;;;;;;5054485;28;20535;-63
2022/03/07 07:54:56;;;;;;;9.93;5.85;;;3.80;71.80;;;;;;5054715;28;20177;-63
2022/03/07 07:57:21;;;;;;;7.63;4.95;;;4.00;70.60;;;;;;5054605;28;20253;-63
2022/03/07 07:59:47;;;;;;;7.72;5.50;;;4.20;69.90;;;;;;5054487;28;20299;-63
2022/03/07 08:02:12;;;;;;;9.32;6.25;;;4.30;69.20;;;;;;5054403;28;20224;-63
2022/03/07 08:04:38;;;;;;;10.60;5.70;;;4.50;68.80;;;;;;5054216;28;20256;-63
2022/03/07 08:07:04;;;;;;;11.38;5.28;;;4.70;68.00;;;;;;5054344;28;20660;-63
2022/03/07 08:09:29;;;;;;;9.50;5.82;;;4.70;66.60;;;;;;5054186;28;20224;-63
2022/03/07 08:11:55;;;;;;;9.32;5.53;;;4.70;66.10;;;;;;5054292;28;20208;-63
2022/03/07 08:14:20;;;;;;;10.50;5.50;;;4.60;66.10;;;;;;5054297;28;20177;-63
2022/03/07 08:16:46;;;;;;;9.32;5.60;;;4.40;66.40;;;;;;5052738;28;20531;-63
2022/03/07 08:19:11;;;;;;;7.18;5.43;;;4.40;66.70;;;;;;5054022;28;20181;-62
2022/03/07 08:21:37;;;;;;;9.88;5.88;;;4.30;66.50;;;;;;5053943;28;20239;-63
2022/03/07 08:24:03;;;;;;;10.05;5.47;;;4.20;66.90;;;;;;5054069;28;20170;-63
2022/03/07 08:26:29;;;;;;;7.88;5.25;;;4.10;66.60;;;;;;5053905;28;20641;-64
2022/03/07 08:28:54;;;;;;;7.57;5.53;;;4.20;67.10;;;;;;5053830;28;20173;-63
2022/03/07 08:31:20;;;;;;;10.13;6.20;;;4.40;66.90;;;;;;5053900;28;20166;-63
2022/03/07 08:33:45;;;;;;;9.32;5.68;;;4.60;66.90;;;;;;5052747;28;20177;-63
2022/03/07 08:36:11;;;;;;;10.75;5.43;;;4.70;66.30;;;;;;5053790;28;20205;-63
2022/03/07 08:38:36;;;;;;;9.48;5.93;;;5.00;66.10;;;;;;5053703;28;20463;-63
2022/03/07 08:41:02;;;;;;;9.10;5.60;;;5.20;64.90;;;;;;5053716;28;20240;-63
2022/03/07 08:43:27;;;;;;;8.73;5.68;;;5.40;63.90;;;;;;5052367;28;20177;-63
2022/03/07 08:45:53;;;;;;;11.13;5.68;;;5.50;63.40;;;;;;5053602;28;20248;-62
2022/03/07 08:48:19;;;;;;;9.15;5.65;;;5.40;63.00;;;;;;5051948;28;20186;-63
2022/03/07 08:50:48;;;;;;;10.32;5.75;;;5.30;61.50;;;;;;5053435;28;20217;-63
2022/03/07 08:53:15;;;;;;;11.48;5.85;;;5.20;61.30;;;;;;5053471;28;20188;-63
2022/03/07 08:55:41;;;;;;;9.52;6.25;;;5.10;61.30;;;;;;5053459;28;20184;-63
2022/03/07 08:58:06;;;;;;;8.23;5.85;;;5.00;61.80;;;;;;5053395;28;20181;-63
2022/03/07 09:00:32;;;;;;;8.23;5.95;;;5.10;61.50;;;;;;5053219;28;20217;-62
2022/03/07 09:02:57;;;;;;;13.02;6.40;;;4.90;60.60;;;;;;5053262;28;20177;-63
2022/03/07 09:05:23;;;;;;;10.65;5.70;;;4.80;61.50;;;;;;5052163;28;20181;-62
2022/03/07 09:07:48;;;;;;;8.65;5.78;;;4.70;62.20;;;;;;5053282;28;20208;-63
2022/03/07 09:10:14;;;;;;;12.93;5.78;;;4.80;62.10;;;;;;5051893;28;20215;-62
2022/03/07 09:12:39;;;;;;;9.80;6.15;;;4.90;61.60;;;;;;5053097;28;20235;-63
2022/03/07 09:15:06;;;;;;;8.38;5.68;;;4.90;60.80;;;;;;5051838;28;20177;-62
2022/03/07 09:17:32;;;;;;;10.23;6.32;;;4.90;60.90;;;;;;5052943;28;20185;-62
2022/03/07 09:19:58;;;;;;;9.65;6.18;;;4.90;60.70;;;;;;5052942;28;20213;-62
2022/03/07 09:22:25;;;;;;;9.10;6.05;;;5.00;61.80;;;;;;5052946;28;20686;-64
2022/03/07 09:24:51;;;;;;;9.23;5.93;;;5.00;59.70;;;;;;5052816;28;20185;-62
2022/03/07 09:27:17;;;;;;;10.07;5.95;;;4.80;59.40;;;;;;5052970;28;20185;-62
2022/03/07 09:29:42;;;;;;;7.30;5.43;;;4.60;59.90;;;;;;5052834;28;20177;-63
2022/03/07 09:32:08;;;;;;;9.95;6.10;;;4.60;60.80;;;;;;5052854;28;20633;-63
2022/03/07 09:34:35;;;;;;;7.88;5.40;;;4.70;61.00;;;;;;5052667;28;20189;-63
2022/03/07 09:37:03;;;;;;;8.13;5.75;;;4.60;59.20;;;;;;5052735;28;20239;-63
2022/03/07 09:39:29;;;;;;;10.95;6.30;;;4.50;59.80;;;;;;5052560;28;20254;-63
2022/03/07 09:41:54;;;;;;;8.57;5.75;;;4.40;59.60;;;;;;5052694;28;20185;-62
2022/03/07 09:44:20;;;;;;;8.80;5.68;;;4.20;59.70;;;;;;5052673;28;20173;-62
2022/03/07 09:46:48;;;;;;;8.52;5.82;;;3.80;59.50;;;;;;5052435;28;20236;-62
2022/03/07 09:49:13;;;;;;;9.00;5.85;;;3.50;60.20;;;;;;5052474;28;20419;-62
2022/03/07 09:51:39;;;;;;;11.75;5.88;;;3.30;60.90;;;;;;5052372;28;20181;-62
2022/03/07 09:54:07;;;;;;;8.88;5.60;;;3.00;61.40;;;;;;5052607;28;20222;-62
2022/03/07 09:56:32;;;;;;;10.00;6.25;;;2.80;61.60;;;;;;5052266;28;20185;-62
2022/03/07 09:58:58;;;;;;;9.38;5.88;;;2.70;62.30;;;;;;5052297;28;20174;-62
2022/03/07 10:01:23;;;;;;;9.80;5.97;;;2.70;61.80;;;;;;5051579;28;20240;-63
2022/03/07 10:03:49;;;;;;;9.30;6.18;;;2.70;61.80;;;;;;5052007;28;20362;-62
2022/03/07 10:06:17;;;;;;;10.40;5.97;;;2.80;61.20;;;;;;5052267;28;20633;-63
2022/03/07 10:08:53;;;;;;;9.93;6.80;;;2.90;61.70;;;;;;5052136;28;20198;-62
2022/03/07 10:11:19;;;;;;;9.60;6.07;;;3.20;60.80;;;;;;5052150;28;20248;-62
2022/03/07 10:14:00;;;;;;;10.00;6.25;;;3.30;59.70;;;;;;5052186;28;20648;-62
2022/03/07 10:16:40;;;;;;;9.32;5.78;;;3.30;59.50;;;;;;5052207;28;20187;-63
2022/03/07 10:19:12;;;;;;;9.57;6.55;;;3.40;58.80;;;;;;5052055;28;20212;-62
2022/03/07 10:21:50;;;;;;;9.38;5.93;;;3.30;58.30;;;;;;5052024;28;20173;-62
2022/03/07 10:24:17;;;;;;;10.88;6.47;;;3.20;58.00;;;;;;5052044;28;20261;-63
2022/03/07 10:26:43;;;;;;;8.93;5.70;;;3.40;59.10;;;;;;5051990;28;20200;-62
2022/03/07 10:29:09;;;;;;;8.50;6.03;;;3.50;58.20;;;;;;5052186;28;20182;-63
2022/03/07 10:31:37;;;;;;;8.70;6.07;;;3.40;57.60;;;;;;5051951;28;20182;-63
2022/03/07 10:34:05;;;;;;;9.43;6.20;;;3.40;57.50;;;;;;5051965;28;20655;-63
2022/03/07 10:36:32;;;;;;;9.57;6.18;;;3.30;57.70;;;;;;5050547;28;20185;-63
2022/03/07 10:38:58;;;;;;;10.68;5.95;;;3.40;57.70;;;;;;5051928;28;20173;-62
2022/03/07 10:41:40;;;;;;;8.43;6.40;;;3.40;58.10;;;;;;5051896;28;20232;-64
2022/03/07 10:44:10;;;;;;;9.30;6.05;;;3.40;58.10;;;;;;5051924;28;20244;-63
2022/03/07 10:46:35;;;;;;;9.43;6.18;;;3.50;58.20;;;;;;5051787;28;20176;-62
2022/03/07 10:49:02;;;;;;;10.07;6.47;;;3.80;58.60;;;;;;5051951;28;20174;-62
2022/03/07 10:51:28;;;;;;;9.18;6.18;;;4.10;57.50;;;;;;5051797;28;20174;-63
2022/03/07 10:53:54;;;;;;;11.25;6.38;;;4.50;57.20;;;;;;5051742;28;20176;-62
2022/03/07 10:56:24;;;;;;;9.88;6.07;;;4.70;56.00;;;;;;5052118;28;20265;-62
2022/03/07 10:58:53;;;;;;;9.55;6.32;;;4.90;55.60;;;;;;5051715;28;20173;-62
2022/03/07 11:01:29;;;;;;;8.57;6.07;;;4.90;54.90;;;;;;5051756;28;20271;-62
2022/03/07 11:03:55;;;;;;;10.15;5.88;;;5.00;55.10;;;;;;5051727;28;20229;-62
2022/03/07 11:06:21;;;;;;;10.55;6.10;;;5.20;54.60;;;;;;5051729;28;20680;-62
2022/03/07 11:08:47;;;;;;;11.00;6.95;;;5.20;54.30;;;;;;5051709;28;20170;-62
2022/03/07 11:11:13;;;;;;;8.27;5.85;;;5.30;53.40;;;;;;5051783;28;20178;-62
2022/03/07 11:13:41;;;;;;;10.93;6.72;;;5.30;53.30;;;;;;5055338;28;20177;-62
2022/03/07 11:16:06;;;;;;;8.45;5.97;;;5.40;53.00;;;;;;5055449;28;20693;-62
2022/03/07 11:18:33;;;;;;;9.82;6.55;;;5.50;52.70;;;;;;5055254;28;20253;-63
2022/03/07 11:21:02;;;;;;;9.80;7.03;;;5.50;52.50;;;;;;5055509;28;20217;-63
2022/03/07 11:23:29;;;;;;;11.02;6.72;;;5.50;52.40;;;;;;5055517;28;20295;-63
2022/03/07 11:25:58;;;;;;;12.05;7.78;;;5.50;52.00;;;;;;5055206;28;20174;-63
2022/03/07 11:28:28;;;;;;;12.38;7.85;;;5.60;51.80;;;;;;5055187;28;20182;-63
2022/03/07 11:30:54;;;;;;;8.93;6.22;;;5.60;51.80;;;;;;5054993;28;20177;-63
2022/03/07 11:33:33;;;;;;;12.93;7.50;;;5.70;52.10;;;;;;5055113;28;20273;-63
2022/03/07 11:36:01;;;;;;;10.18;7.15;;;5.70;52.00;;;;;;5055130;28;20185;-62
2022/03/07 11:38:31;;;;;;;8.75;6.75;;;5.90;52.00;;;;;;5054938;28;20173;-63
2022/03/07 11:41:12;;;;;;;10.23;7.05;;;5.90;51.40;;;;;;5054940;28;20217;-63
2022/03/07 11:43:56;;;;;;;10.82;7.07;;;5.90;50.90;;;;;;5054857;28;20590;-61
2022/03/07 11:46:34;;;;;;;10.32;6.90;;;5.80;50.40;;;;;;5054865;28;20170;-62
2022/03/07 11:49:02;;;;;;;10.80;7.13;;;5.80;50.20;;;;;;5054719;28;20579;-62
2022/03/07 11:51:30;;;;;;;10.55;7.25;;;5.80;50.50;;;;;;5054617;28;20169;-62
2022/03/07 11:53:57;;;;;;;13.77;6.93;;;6.00;50.60;;;;;;5054698;28;20174;-62
2022/03/07 11:56:35;;;;;;;11.02;7.15;;;6.00;50.20;;;;;;5054659;28;20172;-62
2022/03/07 11:59:04;;;;;;;10.30;6.70;;;6.10;50.30;;;;;;5054662;28;20223;-62
2022/03/07 12:01:31;;;;;;;11.60;7.00;;;6.20;50.00;;;;;;5054489;28;20174;-62
2022/03/07 12:04:14;;;;;;;10.23;6.68;;;6.00;49.30;;;;;;5054377;28;20232;-62
2022/03/07 12:06:46;;;;;;;10.75;7.20;;;5.90;50.10;;;;;;5054412;28;20591;-62
2022/03/07 12:09:26;;;;;;;12.10;6.65;;;5.90;49.70;;;;;;5053089;28;20182;-62
2022/03/07 12:12:07;;;;;;;9.90;7.05;;;5.90;49.10;;;;;;5054176;28;20196;-62
2022/03/07 12:14:35;;;;;;;10.70;7.40;;;5.90;49.60;;;;;;5054071;28;20176;-63
2022/03/07 12:17:10;;;;;;;11.73;7.43;;;5.90;49.20;;;;;;5054258;28;20268;-62
2022/03/07 12:19:36;;;;;;;12.65;8.38;;;6.00;49.10;;;;;;5054156;28;20204;-62
2022/03/07 12:22:13;;;;;;;10.50;7.38;;;6.10;48.60;;;;;;5054172;28;20174;-62
2022/03/07 12:24:39;;;;;;;12.48;7.95;;;6.10;49.10;;;;;;5053399;28;20526;-62
2022/03/07 12:27:06;;;;;;;11.30;7.78;;;6.10;48.60;;;;;;5054180;28;20201;-63
2022/03/07 12:29:32;;;;;;;11.05;7.75;;;6.10;48.70;;;;;;5053855;28;20195;-62
2022/03/07 12:32:06;;;;;;;15.48;7.53;;;6.20;48.00;;;;;;5053967;28;20261;-62
2022/03/07 12:34:34;;;;;;;12.65;8.25;;;6.10;48.20;;;;;;5053782;28;20184;-62
2022/03/07 12:37:08;;;;;;;10.52;7.72;;;5.90;48.20;;;;;;5053898;28;20185;-62
2022/03/07 12:39:49;;;;;;;12.57;7.63;;;5.90;48.40;;;;;;5053636;28;20205;-63
2022/03/07 12:42:21;;;;;;;12.23;8.10;;;5.80;48.40;;;;;;5053829;28;20238;-62
2022/03/07 12:44:47;;;;;;;13.05;7.40;;;5.80;48.60;;;;;;5054027;28;20173;-63
2022/03/07 12:47:13;;;;;;;10.93;7.60;;;5.90;48.80;;;;;;5053661;28;20223;-62
2022/03/07 12:49:40;;;;;;;10.25;7.53;;;5.90;49.50;;;;;;5053537;28;20229;-62